Time;durP1;ratioP1;P1;durP2;ratioP2;P2;SDS_P1;SDS_P2;PMS_P1;PMS_P2;Temp;Humidity;BMP_temperature;BMP_pressure;BME280_temperature;BME280_humidity;BME280_pressure;Samples;Min_cycle;Max_cycle;Signal;HPM_P1;HPM_P2
2024/03/17 00:02:09;;;;;;;13.48;8.48;;;;;;;9.16;100.00;99246.63;5001769;28;20065;-92
2024/03/17 00:04:37;;;;;;;12.63;7.63;;;;;;;9.32;100.00;99273.84;5005804;28;20038;-90
2024/03/17 00:07:03;;;;;;;12.07;8.10;;;;;;;9.24;100.00;99277.47;5004110;28;20045;-91
2024/03/17 00:09:29;;;;;;;12.38;7.32;;;;;;;8.73;100.00;99202.97;5014939;28;20104;-90
2024/03/17 00:11:55;;;;;;;13.43;6.68;;;;;;;8.82;100.00;99224.06;5003262;28;20054;-91
2024/03/17 00:14:21;;;;;;;11.07;5.68;;;;;;;8.98;100.00;99251.28;5005275;28;20129;-90
2024/03/17 00:16:48;;;;;;;11.85;7.57;;;;;;;9.05;100.00;99265.34;5002966;28;20048;-90
2024/03/17 00:19:14;;;;;;;11.48;7.97;;;;;;;8.71;100.00;99228.63;5000783;28;20042;-92
2024/03/17 00:21:41;;;;;;;11.13;6.30;;;;;;;8.77;100.00;99222.38;5008190;28;20048;-91
2024/03/17 00:24:08;;;;;;;10.02;5.88;;;;;;;8.68;100.00;99209.25;5000660;28;20068;-89
2024/03/17 00:26:34;;;;;;;13.57;7.82;;;;;;;8.88;100.00;99265.56;5003204;28;20048;-91
2024/03/17 00:29:00;;;;;;;12.43;7.85;;;;;;;8.90;100.00;99273.50;5002846;28;20132;-91
2024/03/17 00:31:26;;;;;;;12.95;7.55;;;;;;;8.84;100.00;99283.28;5002568;28;20124;-91
2024/03/17 00:33:52;;;;;;;11.40;7.10;;;;;;;8.77;100.00;99281.59;5003482;28;20037;-92
2024/03/17 00:36:18;;;;;;;12.77;8.05;;;;;;;8.52;100.00;99224.44;5015388;28;20038;-91
2024/03/17 00:38:46;;;;;;;13.45;6.38;;;;;;;8.53;100.00;99229.75;5006831;28;20044;-91
2024/03/17 00:41:12;;;;;;;11.55;6.05;;;;;;;8.78;100.00;99271.88;5016339;28;20057;-90
2024/03/17 00:43:38;;;;;;;8.77;6.15;;;;;;;8.83;100.00;99276.22;5018816;28;20041;-90
2024/03/17 00:46:04;;;;;;;11.52;6.13;;;;;;;8.87;100.00;99265.56;5002529;28;20029;-89
2024/03/17 00:48:31;;;;;;;7.18;4.43;;;;;;;8.88;100.00;99265.56;5022230;28;20041;-91
2024/03/17 00:50:58;;;;;;;10.35;5.00;;;;;;;8.74;100.00;99233.91;5004212;28;21501;-92
2024/03/17 00:53:24;;;;;;;10.63;5.72;;;;;;;8.91;100.00;99261.97;5008073;28;20100;-89
2024/03/17 00:55:58;;;;;;;12.90;6.68;;;;;;;8.85;100.00;99265.59;5000317;28;20037;-93
2024/03/17 00:58:24;;;;;;;8.88;5.68;;;;;;;8.34;100.00;99181.31;5019289;28;20041;-91
2024/03/17 01:00:50;;;;;;;11.25;6.38;;;;;;;8.71;100.00;99255.16;5018770;28;20152;-90
2024/03/17 01:03:17;;;;;;;10.63;5.53;;;;;;;8.77;100.00;99259.50;5007671;28;20034;-90
2024/03/17 01:05:44;;;;;;;9.40;5.15;;;;;;;8.13;100.00;99126.84;5002631;28;20409;-91
2024/03/17 01:08:10;;;;;;;11.15;5.40;;;;;;;8.41;100.00;99174.22;5019487;28;20038;-92
2024/03/17 01:10:40;;;;;;;8.20;5.40;;;;;;;8.33;100.00;99174.28;5004615;28;20042;-92
2024/03/17 01:13:09;;;;;;;7.55;5.35;;;;;;;8.36;100.00;99170.72;5015471;28;20045;-93
2024/03/17 01:15:36;;;;;;;7.43;4.63;;;;;;;8.59;100.00;99223.50;4998791;28;20053;-92
2024/03/17 01:18:04;;;;;;;11.02;5.82;;;;;;;8.00;100.00;99128.75;5005778;28;20490;-91
2024/03/17 01:20:30;;;;;;;11.07;6.50;;;;;;;8.69;100.00;99253.41;5004678;28;20077;-92
2024/03/17 01:22:56;;;;;;;7.55;4.90;;;;;;;8.22;100.00;99176.19;5003453;28;20034;-91
2024/03/17 01:25:22;;;;;;;8.30;4.75;;;;;;;8.63;100.00;99235.78;5001559;28;20053;-91
2024/03/17 01:27:48;;;;;;;10.82;6.30;;;;;;;8.20;100.00;99172.66;5002114;28;20117;-92
2024/03/17 01:30:16;;;;;;;8.40;5.05;;;;;;;8.76;100.00;99255.09;4997062;28;20386;-91
2024/03/17 01:32:42;;;;;;;11.40;5.97;;;;;;;8.38;100.00;99167.16;5004140;28;20042;-94
2024/03/17 01:35:08;;;;;;;10.73;6.25;;;;;;;8.16;100.00;99134.72;5004220;28;20042;-92
2024/03/17 01:37:34;;;;;;;13.65;7.28;;;;;;;8.06;100.00;99103.06;5002555;28;20120;-92
2024/03/17 01:40:01;;;;;;;10.55;6.85;;;;;;;7.82;100.00;99083.91;5001898;28;20042;-91
2024/03/17 01:42:29;;;;;;;9.48;6.05;;;;;;;8.73;100.00;99241.88;4988569;28;20054;-91
2024/03/17 01:44:55;;;;;;;11.15;7.38;;;;;;;8.54;100.00;99220.00;4984797;28;20129;-92
2024/03/17 01:47:24;;;;;;;11.38;6.70;;;;;;;8.65;100.00;99236.66;4983706;28;20049;-93
2024/03/17 01:49:51;;;;;;;13.75;6.65;;;;;;;7.87;100.00;99126.22;4990439;28;20031;-92
2024/03/17 01:52:18;;;;;;;13.38;7.70;;;;;;;8.42;100.00;99235.16;4990265;28;20864;-92
2024/03/17 01:54:46;;;;;;;13.00;7.68;;;;;;;8.38;100.00;99244.00;5000489;28;20039;-93
2024/03/17 01:57:13;;;;;;;11.07;6.82;;;;;;;8.07;100.00;99189.56;4995901;28;20039;-91
2024/03/17 01:59:39;;;;;;;12.20;6.85;;;;;;;7.84;100.00;99160.69;4997337;28;20064;-92
2024/03/17 02:02:06;;;;;;;9.90;6.13;;;;;;;8.22;100.00;99238.00;4995795;28;20201;-90
2024/03/17 02:04:34;;;;;;;11.27;6.13;;;;;;;8.21;100.00;99236.22;4992943;28;20050;-93
2024/03/17 02:07:00;;;;;;;8.40;5.55;;;;;;;7.75;100.00;99159.88;4982713;28;20042;-91
2024/03/17 02:09:27;;;;;;;10.88;6.43;;;;;;;8.14;100.00;99238.97;4988494;28;20102;-91
2024/03/17 02:11:53;;;;;;;9.73;5.55;;;;;;;7.91;100.00;99195.00;4990078;28;20096;-92
2024/03/17 02:14:21;;;;;;;12.35;6.10;;;;;;;7.89;100.00;99204.75;4984864;28;20125;-91
2024/03/17 02:16:47;;;;;;;10.50;7.07;;;;;;;8.08;100.00;99253.13;5000546;28;20018;-91
2024/03/17 02:19:13;;;;;;;12.60;6.75;;;;;;;7.87;100.00;99217.16;5003974;28;20014;-92
2024/03/17 02:21:40;;;;;;;11.75;6.43;;;;;;;7.80;100.00;99204.84;5005294;28;20034;-93
2024/03/17 02:24:09;;;;;;;9.77;6.82;;;;;;;7.59;100.00;99169.72;5007279;28;20145;-91
2024/03/17 02:26:36;;;;;;;10.32;6.57;;;;;;;8.04;100.00;99251.41;5017221;28;20049;-91
2024/03/17 02:29:02;;;;;;;8.80;6.25;;;;;;;7.82;100.00;99213.66;5015423;28;20049;-92
2024/03/17 02:31:29;;;;;;;13.70;6.82;;;;;;;8.09;100.00;99254.91;4978355;28;20062;-92
2024/03/17 02:33:55;;;;;;;32.28;9.73;;;;;;;7.89;100.00;99211.81;4981155;28;20046;-92
2024/03/17 02:36:21;;;;;;;34.78;7.95;;;;;;;7.96;100.00;99205.59;4996871;28;20498;-91
2024/03/17 02:41:46;;;;;;;16.15;6.95;;;;;;;8.39;100.00;99251.06;5158565;27;20348;-92
2024/03/17 02:44:12;;;;;;;15.88;6.75;;;;;;;8.29;100.00;99214.09;5138211;28;20469;-92
2024/03/17 02:46:38;;;;;;;26.40;6.18;;;;;;;8.48;100.00;99244.81;5130784;28;20062;-93
2024/03/17 02:49:05;;;;;;;37.40;7.53;;;;;;;8.15;100.00;99180.66;5130904;27;20035;-92
2024/03/17 02:51:30;;;;;;;51.05;7.95;;;;;;;8.36;100.00;99210.47;5130901;27;20085;-92
2024/03/17 02:53:59;;;;;;;27.63;6.60;;;;;;;8.60;100.00;99244.66;5131247;28;20056;-93
2024/03/17 02:56:25;;;;;;;12.82;6.18;;;;;;;8.50;100.00;99202.38;5129583;28;20044;-93
2024/03/17 02:58:54;;;;;;;18.05;6.63;;;;;;;8.74;100.00;99236.56;5131061;28;20035;-93
2024/03/17 03:01:20;;;;;;;37.25;5.90;;;;;;;8.05;100.00;99167.53;5130738;27;20512;-93
2024/03/17 03:03:46;;;;;;;37.25;5.35;;;;;;;7.92;100.00;99150.91;5130793;28;20035;-92
2024/03/17 03:06:13;;;;;;;81.60;6.32;;;;;;;8.12;100.00;99238.97;5130323;27;20050;-93
2024/03/17 03:08:40;;;;;;;15.95;4.00;;;;;;;7.40;100.00;99128.44;5130571;28;20044;-93
2024/03/17 03:11:10;;;;;;;19.10;4.97;;;;;;;7.58;100.00;99140.63;5131050;28;20043;-92
2024/03/17 03:13:38;;;;;;;17.33;4.53;;;;;;;8.03;100.00;99229.34;5131345;27;20071;-93
2024/03/17 03:16:07;;;;;;;36.05;4.88;;;;;;;7.99;100.00;99210.84;5130720;28;20097;-93
2024/03/17 03:18:33;;;;;;;7.30;3.80;;;;;;;8.15;100.00;99224.81;5130908;28;20114;-92
2024/03/17 03:21:00;;;;;;;8.98;3.63;;;;;;;7.60;100.00;99123.84;5130903;27;20093;-93
2024/03/17 03:23:27;;;;;;;8.95;4.07;;;;;;;8.22;100.00;99222.09;5130625;28;20032;-92
2024/03/17 03:25:56;;;;;;;7.65;3.97;;;;;;;8.06;100.00;99191.34;5130683;27;20132;-93
2024/03/17 03:28:22;;;;;;;6.00;3.78;;;;;;;7.97;100.00;99163.19;5130510;28;20126;-93
2024/03/17 03:30:48;;;;;;;8.57;4.40;;;;;;;8.09;100.00;99162.19;5128547;28;20035;-93
2024/03/17 03:33:15;;;;;;;6.57;3.25;;;;;;;8.18;100.00;99163.88;5130323;27;20043;-94
2024/03/17 03:35:42;;;;;;;7.45;3.78;;;;;;;8.36;100.00;99234.31;5130154;28;20114;-93
2024/03/17 03:38:08;;;;;;;6.13;3.90;;;;;;;8.38;100.00;99236.03;5129743;28;20070;-92
2024/03/17 03:40:34;;;;;;;8.48;3.75;;;;;;;8.46;100.00;99235.09;5129694;28;20043;-93
2024/03/17 03:43:00;;;;;;;8.90;4.18;;;;;;;8.47;100.00;99229.81;5130168;28;20447;-93
2024/03/17 03:45:26;;;;;;;8.25;3.95;;;;;;;8.49;100.00;99229.78;5129010;28;20043;-93
2024/03/17 03:47:53;;;;;;;7.07;3.38;;;;;;;8.49;100.00;99232.44;5130028;27;20038;-92
2024/03/17 03:50:22;;;;;;;13.15;4.20;;;;;;;8.52;100.00;99232.41;5130369;28;20035;-92
2024/03/17 03:52:48;;;;;;;9.20;4.75;;;;;;;8.35;100.00;99203.41;5118734;28;20126;-93
2024/03/17 03:55:16;;;;;;;8.23;4.68;;;;;;;8.57;100.00;99241.19;5116813;28;20040;-93
2024/03/17 03:57:45;;;;;;;8.88;4.75;;;;;;;7.94;100.00;99138.53;5116696;28;20039;-94
2024/03/17 04:00:13;;;;;;;10.45;5.43;;;;;;;8.02;100.00;99157.84;5116100;28;20048;-94
2024/03/17 04:02:39;;;;;;;13.20;5.05;;;;;;;8.60;100.00;99257.06;5124364;28;20036;-93
2024/03/17 04:05:06;;;;;;;9.75;4.85;;;;;;;8.19;100.00;99187.66;5119439;28;20047;-93
2024/03/17 04:07:37;;;;;;;24.67;4.88;;;;;;;8.43;100.00;99207.75;5116653;28;20054;-93
2024/03/17 04:10:04;;;;;;;30.02;4.15;;;;;;;8.63;100.00;99257.91;5116517;28;20499;-93
2024/03/17 04:12:31;;;;;;;5.57;3.42;;;;;;;8.22;100.00;99186.78;5116686;28;20096;-93
2024/03/17 04:14:57;;;;;;;6.95;3.83;;;;;;;8.12;100.00;99193.06;5117040;28;20050;-93
2024/03/17 04:17:24;;;;;;;9.45;3.53;;;;;;;8.42;100.00;99235.16;5115926;28;20089;-94
2024/03/17 04:19:50;;;;;;;13.57;3.78;;;;;;;8.45;100.00;99241.31;5116650;28;20046;-95
2024/03/17 04:22:16;;;;;;;9.55;4.72;;;;;;;8.71;100.00;99281.66;5116176;28;20039;-92
2024/03/17 04:24:44;;;;;;;14.80;4.30;;;;;;;8.76;100.00;99281.59;5116180;28;20467;-92
2024/03/17 04:27:11;;;;;;;17.17;5.07;;;;;;;8.45;100.00;99217.47;5116432;28;20043;-92
2024/03/17 04:29:37;;;;;;;12.10;4.82;;;;;;;8.87;100.00;99294.75;5116300;28;20159;-93
2024/03/17 04:32:04;;;;;;;41.47;5.13;;;;;;;8.61;100.00;99290.63;5129265;28;20027;-93
2024/03/17 04:34:31;;;;;;;33.58;4.28;;;;;;;8.71;100.00;99291.41;5132180;28;20047;-93
2024/03/17 04:36:57;;;;;;;63.45;5.03;;;;;;;8.32;100.00;99236.09;5132697;28;20036;-93
2024/03/17 04:39:23;;;;;;;14.27;4.18;;;;;;;8.09;100.00;99190.44;5131887;28;20059;-93
2024/03/17 04:41:51;;;;;;;11.70;3.90;;;;;;;8.72;100.00;99302.00;5131847;28;20063;-92
2024/03/17 04:44:17;;;;;;;7.65;3.42;;;;;;;8.72;100.00;99301.09;5130176;28;20111;-93
2024/03/17 04:46:43;;;;;;;57.22;4.72;;;;;;;8.71;100.00;99304.66;5125860;28;20042;-93
2024/03/17 04:49:09;;;;;;;12.70;3.63;;;;;;;8.73;100.00;99295.78;5115928;28;20044;-94
2024/03/17 04:51:35;;;;;;;44.28;4.65;;;;;;;8.15;100.00;99201.84;5115607;28;20039;-93
2024/03/17 04:54:03;;;;;;;56.17;5.22;;;;;;;8.20;100.00;99226.53;5116609;28;20062;-93
2024/03/17 04:56:29;;;;;;;53.22;4.80;;;;;;;8.41;100.00;99288.16;5116258;28;20067;-93
2024/03/17 04:58:57;;;;;;;31.13;4.30;;;;;;;8.37;100.00;99282.00;5116273;28;20043;-93
2024/03/17 05:01:24;;;;;;;27.25;3.72;;;;;;;8.26;100.00;99251.19;5116282;28;20066;-93
2024/03/17 05:03:52;;;;;;;36.80;4.45;;;;;;;8.32;100.00;99252.00;5130955;28;20030;-92
2024/03/17 05:06:18;;;;;;;36.10;4.35;;;;;;;8.13;100.00;99208.03;5139193;28;20022;-93
2024/03/17 05:08:45;;;;;;;72.38;5.25;;;;;;;8.40;100.00;99271.41;5140131;28;20049;-92
2024/03/17 05:11:11;;;;;;;83.13;5.70;;;;;;;8.36;100.00;99313.81;5139691;28;20083;-91
2024/03/17 05:13:39;;;;;;;24.77;3.63;;;;;;;8.28;100.00;99287.38;5130749;28;20044;-93
2024/03/17 05:16:07;;;;;;;29.75;3.75;;;;;;;8.21;100.00;99270.66;5124357;28;20063;-94
2024/03/17 05:18:33;;;;;;;12.82;3.80;;;;;;;7.96;100.00;99210.88;5120898;28;20082;-92
2024/03/17 05:21:00;;;;;;;48.47;4.18;;;;;;;7.90;100.00;99216.22;5123565;28;20044;-93
2024/03/17 05:23:28;;;;;;;34.10;4.03;;;;;;;8.07;100.00;99250.47;5124318;28;20096;-93
2024/03/17 05:25:55;;;;;;;38.08;4.65;;;;;;;8.41;100.00;99330.56;5124014;28;20107;-93
2024/03/17 05:28:21;;;;;;;75.97;5.57;;;;;;;7.79;100.00;99208.38;5123088;28;20040;-93
2024/03/17 05:30:50;;;;;;;61.25;4.60;;;;;;;8.58;100.00;99338.38;5115545;28;20418;-92
2024/03/17 05:33:18;;;;;;;9.52;3.40;;;;;;;8.39;100.00;99298.78;5114901;28;20176;-93
2024/03/17 05:35:49;;;;;;;22.50;3.60;;;;;;;8.71;100.00;99344.44;5115198;28;20047;-93
2024/03/17 05:38:15;;;;;;;7.22;3.67;;;;;;;8.27;100.00;99263.56;5115229;28;20044;-92
2024/03/17 05:40:41;;;;;;;23.42;3.58;;;;;;;8.41;100.00;99267.88;5114536;28;20567;-93
2024/03/17 05:43:07;;;;;;;10.68;4.53;;;;;;;8.63;100.00;99310.94;5114597;28;20043;-92
2024/03/17 05:45:34;;;;;;;20.58;5.20;;;;;;;8.83;100.00;99334.56;5115296;28;20043;-94
2024/03/17 05:48:05;;;;;;;12.55;4.32;;;;;;;8.67;100.00;99295.84;5114705;28;20044;-94
2024/03/17 05:50:32;;;;;;;9.82;3.83;;;;;;;8.75;100.00;99304.59;5114850;28;20039;-93
2024/03/17 05:52:59;;;;;;;11.60;4.15;;;;;;;9.01;100.00;99349.41;5120631;28;20039;-94
2024/03/17 05:55:25;;;;;;;11.43;4.03;;;;;;;8.94;100.00;99320.31;5130620;28;20051;-94
2024/03/17 05:57:51;;;;;;;17.80;3.72;;;;;;;8.89;100.00;99295.59;5130891;28;20134;-94
2024/03/17 06:00:17;;;;;;;15.88;3.55;;;;;;;9.28;100.00;99343.78;5127886;28;20042;-93
2024/03/17 06:02:44;;;;;;;17.42;3.50;;;;;;;9.21;100.00;99333.22;5127071;28;20039;-93
2024/03/17 06:05:14;;;;;;;21.42;4.30;;;;;;;9.41;100.00;99359.53;5127360;28;20044;-92
2024/03/17 06:07:41;;;;;;;;;;;;;;;9.20;100.00;99358.03;5119219;28;20059;-93
2024/03/17 06:10:08;;;;;;;18.50;3.10;;;;;;;8.70;100.00;99258.72;5115290;28;19962;-93
2024/03/17 06:12:34;;;;;;;14.35;3.63;;;;;;;9.27;100.00;99352.66;5114524;28;20047;-94
2024/03/17 06:15:01;;;;;;;20.60;4.10;;;;;;;9.04;100.00;99306.03;5114711;28;20040;-94
2024/03/17 06:17:27;;;;;;;9.00;4.18;;;;;;;9.34;100.00;99346.34;5118690;28;20035;-93
2024/03/17 06:19:54;;;;;;;11.30;3.72;;;;;;;8.72;100.00;99233.06;5122646;28;20043;-93
2024/03/17 06:22:20;;;;;;;35.40;4.28;;;;;;;9.50;100.00;99355.88;5122691;28;20036;-93
2024/03/17 06:24:47;;;;;;;28.42;4.03;;;;;;;9.36;100.00;99333.94;5119696;28;20070;-92
2024/03/17 06:27:14;;;;;;;24.83;3.60;;;;;;;8.79;100.00;99242.69;5119498;28;20054;-93
2024/03/17 06:29:40;;;;;;;12.57;3.35;;;;;;;9.45;100.00;99368.31;5118048;28;20138;-94
2024/03/17 06:32:06;;;;;;;53.75;4.78;;;;;;;9.49;100.00;99369.16;5115117;28;20043;-93
2024/03/17 06:34:32;;;;;;;21.50;4.10;;;;;;;9.14;100.00;99309.47;5114438;28;20040;-94
2024/03/17 06:37:00;;;;;;;6.57;3.83;;;;;;;9.55;100.00;99377.94;5114185;28;20093;-93
2024/03/17 06:39:26;;;;;;;8.93;3.20;;;;;;;9.51;100.00;99381.53;5114050;28;20116;-93
2024/03/17 06:41:54;;;;;;;15.45;3.63;;;;;;;9.43;100.00;99389.59;5114829;28;20039;-94
2024/03/17 06:44:24;;;;;;;18.98;3.72;;;;;;;9.29;100.00;99364.13;5114749;28;20075;-94
2024/03/17 06:46:50;;;;;;;28.05;3.92;;;;;;;9.32;100.00;99353.44;5114415;28;20467;-93
2024/03/17 06:49:16;;;;;;;23.17;5.55;;;;;;;9.21;100.00;99394.25;5113960;28;20031;-94
2024/03/17 06:51:44;;;;;;;13.57;3.53;;;;;;;8.71;100.00;99294.03;5113904;28;20047;-93
2024/03/17 06:54:10;;;;;;;13.00;4.70;;;;;;;8.62;100.00;99340.09;5097237;28;20039;-92
2024/03/17 06:56:37;;;;;;;27.67;4.82;;;;;;;8.66;100.00;99349.78;5110746;28;20445;-93
2024/03/17 06:59:05;;;;;;;8.27;3.80;;;;;;;8.68;100.00;99344.47;5115264;28;20138;-94
2024/03/17 07:01:31;;;;;;;18.10;4.00;;;;;;;8.71;100.00;99355.03;5112052;28;20130;-93
2024/03/17 07:03:59;;;;;;;25.98;4.70;;;;;;;8.96;100.00;99379.53;5112819;28;20040;-94
2024/03/17 07:06:28;;;;;;;14.57;3.97;;;;;;;8.77;100.00;99318.72;5112439;28;20085;-92
2024/03/17 07:08:54;;;;;;;32.67;4.85;;;;;;;9.53;100.00;99416.91;5113036;28;20100;-93
2024/03/17 07:11:23;;;;;;;11.95;4.68;;;;;;;9.64;100.00;99432.69;5113069;28;20042;-94
2024/03/17 07:13:51;;;;;;;11.27;3.60;;;;;;;9.80;100.00;99412.13;5113373;28;20043;-94
2024/03/17 07:16:24;;;;;;;7.50;3.45;;;;;;;9.75;100.00;99400.69;5112114;28;20047;-94
2024/03/17 07:18:51;;;;;;;7.88;3.78;;;;;;;9.45;100.00;99321.44;5111894;28;20048;-93
2024/03/17 07:21:17;;;;;;;24.38;4.47;;;;;;;9.97;100.00;99425.16;5112960;28;20082;-93
2024/03/17 07:23:43;;;;;;;7.13;3.03;;;;;;;9.89;100.00;99385.44;5112655;28;20470;-92
2024/03/17 07:26:09;;;;;;;10.68;4.15;;;;;;;9.81;100.00;99374.03;5112837;28;20032;-92
2024/03/17 07:28:40;;;;;;;9.18;4.03;;;;;;;10.15;100.00;99427.56;5116289;28;20044;-94
2024/03/17 07:31:08;;;;;;;28.02;4.25;;;;;;;9.78;100.00;99327.16;5115470;28;20043;-94
2024/03/17 07:33:35;;;;;;;28.83;4.68;;;;;;;10.01;100.00;99361.34;5116992;28;20079;-93
2024/03/17 07:36:02;;;;;;;12.38;3.65;;;;;;;9.83;100.00;99324.44;5118256;28;20042;-92
2024/03/17 07:38:30;;;;;;;12.98;4.07;;;;;;;9.82;100.00;99339.50;5118313;28;20043;-93
2024/03/17 07:40:58;;;;;;;15.70;5.00;;;;;;;10.04;100.00;99410.88;5117630;28;20044;-91
2024/03/17 07:43:25;;;;;;;9.13;3.60;;;;;;;10.22;100.00;99421.25;5122450;28;20039;-93
2024/03/17 07:45:59;;;;;;;10.13;3.85;;;;;;;10.17;100.00;99382.34;5118166;28;20109;-93
2024/03/17 07:48:25;;;;;;;11.00;4.22;;;;;;;10.11;100.00;99425.00;5130399;28;20047;-92
2024/03/17 07:50:56;;;;;;;7.40;3.40;;;;;;;9.76;100.00;99386.50;5129519;28;20048;-91
2024/03/17 07:53:22;;;;;;;11.27;4.53;;;;;;;9.78;100.00;99360.78;5129998;28;20035;-92
2024/03/17 07:55:58;;;;;;;9.50;4.25;;;;;;;10.11;100.00;99409.91;5130074;28;20047;-91
2024/03/17 07:58:25;;;;;;;11.20;5.00;;;;;;;9.85;100.00;99432.41;5120558;28;20035;-91
2024/03/17 08:00:52;;;;;;;12.60;3.80;;;;;;;10.16;100.00;99417.81;5116738;28;20183;-90
2024/03/17 08:03:18;;;;;;;22.30;4.57;;;;;;;10.29;100.00;99406.13;5117750;28;20068;-91
2024/03/17 08:05:49;;;;;;;24.25;4.78;;;;;;;10.30;100.00;99378.66;5128758;28;20039;-92
2024/03/17 08:08:16;;;;;;;26.08;4.90;;;;;;;10.71;100.00;99416.94;5126116;28;20067;-93
2024/03/17 08:10:42;;;;;;;23.52;5.07;;;;;;;10.71;100.00;99419.59;5123213;28;20031;-92
2024/03/17 08:13:08;;;;;;;14.40;5.18;;;;;;;10.79;100.00;99424.81;5126284;28;20089;-92
2024/03/17 08:15:35;;;;;;;11.27;4.72;;;;;;;10.20;100.00;99323.84;5117893;28;20123;-92
2024/03/17 08:18:00;;;;;;;10.70;5.47;;;;;;;10.62;100.00;99401.16;5117180;28;20047;-92
2024/03/17 08:20:27;;;;;;;13.05;4.72;;;;;;;10.90;100.00;99429.03;5116671;28;20031;-91
2024/03/17 08:22:53;;;;;;;11.90;5.13;;;;;;;10.97;100.00;99399.66;5115502;28;20042;-90
2024/03/17 08:25:22;;;;;;;9.98;4.68;;;;;;;11.08;100.00;99421.59;5115808;28;20044;-94
2024/03/17 08:27:48;;;;;;;14.90;5.07;;;;;;;11.10;100.00;99386.09;5115605;28;20404;-89
2024/03/17 08:30:14;;;;;;;32.08;10.57;;;;;;;11.17;100.00;99381.53;5114990;28;20495;-91
2024/03/17 08:32:40;;;;;;;21.00;9.25;;;;;;;11.21;100.00;99391.22;5115131;28;20036;-91
2024/03/17 08:35:07;;;;;;;13.65;5.88;;;;;;;11.46;100.00;99417.34;5114665;28;20042;-92
2024/03/17 08:37:36;;;;;;;11.40;5.85;;;;;;;11.03;100.00;99333.00;5114960;28;20036;-90
2024/03/17 08:40:02;;;;;;;13.52;6.28;;;;;;;11.73;100.00;99423.84;5116209;28;20046;-90
2024/03/17 08:42:30;;;;;;;15.73;7.95;;;;;;;11.45;100.00;99356.97;5116320;28;20127;-91
2024/03/17 08:44:56;;;;;;;19.83;8.98;;;;;;;11.48;100.00;99364.91;5117733;28;20042;-92
2024/03/17 08:47:22;;;;;;;17.90;8.07;;;;;;;11.66;100.00;99379.63;5115111;28;20111;-91
2024/03/17 08:49:51;;;;;;;15.95;8.25;;;;;;;11.64;100.00;99365.47;5115362;28;20528;-94
2024/03/17 08:52:17;;;;;;;15.02;7.55;;;;;;;11.80;100.00;99398.00;5116328;28;20036;-93
2024/03/17 08:54:46;;;;;;;14.52;7.45;;;;;;;11.66;100.00;99371.63;5116633;28;20449;-93
2024/03/17 08:57:12;;;;;;;13.90;6.78;;;;;;;11.79;100.00;99380.22;5116049;28;20032;-92
2024/03/17 08:59:40;;;;;;;17.17;8.18;;;;;;;11.64;100.00;99349.47;5115188;28;20050;-92
2024/03/17 09:02:14;;;;;;;14.70;7.60;;;;;;;12.01;100.00;99416.16;5115106;28;20036;-92
2024/03/17 09:04:40;;;;;;;14.90;7.65;;;;;;;11.81;100.00;99360.63;5116022;28;20046;-90
2024/03/17 09:07:06;;;;;;;18.10;8.48;;;;;;;12.22;100.00;99419.28;5114512;28;20073;-91
2024/03/17 09:09:33;;;;;;;16.58;7.65;;;;;;;12.37;100.00;99416.25;5113791;28;20039;-92
2024/03/17 09:11:59;;;;;;;15.77;8.13;;;;;;;12.47;100.00;99415.13;5112325;28;20504;-92
2024/03/17 09:14:25;;;;;;;18.25;9.05;;;;;;;12.60;100.00;99420.13;5114411;28;20478;-93
2024/03/17 09:16:52;;;;;;;17.90;9.35;;;;;;;12.60;100.00;99394.34;5113603;28;20487;-92
2024/03/17 09:19:18;;;;;;;18.85;9.18;;;;;;;12.77;100.00;99423.25;5114179;28;20043;-93
2024/03/17 09:21:45;;;;;;;19.73;9.75;;;;;;;12.32;100.00;99332.81;5114506;28;20036;-94
2024/03/17 09:24:11;;;;;;;21.92;10.48;;;;;;;12.85;100.00;99423.94;5114738;28;20031;-92
2024/03/17 09:26:39;;;;;;;17.40;9.00;;;;;;;12.72;100.00;99391.34;5107391;28;20092;-91
2024/03/17 09:29:05;;;;;;;22.23;10.65;;;;;;;12.36;100.00;99310.50;5114248;28;20062;-92
2024/03/17 09:31:34;;;;;;;17.80;8.82;;;;;;;13.05;100.00;99414.53;5114127;28;20046;-92
2024/03/17 09:34:01;;;;;;;17.00;8.10;;;;;;;13.11;100.00;99406.34;5114469;28;20042;-92
2024/03/17 09:36:27;;;;;;;14.32;7.55;;;;;;;13.20;100.00;99415.91;5108599;28;20032;-93
2024/03/17 09:38:54;;;;;;;15.35;8.13;;;;;;;13.21;100.00;99410.53;5114887;28;20047;-93
2024/03/17 09:41:25;;;;;;;11.00;6.55;;;;;;;13.23;100.00;99400.69;5115157;28;20048;-92
2024/03/17 09:43:53;;;;;;;14.82;7.05;;;;;;;13.30;100.00;99404.97;5118101;28;20376;-92
2024/03/17 09:46:20;;;;;;;11.38;6.30;;;;;;;12.75;100.00;99339.66;5126753;28;20035;-93
2024/03/17 09:48:46;;;;;;;11.27;5.35;;;;;;;13.20;100.00;99398.06;5128889;28;20047;-94
2024/03/17 09:51:19;;;;;;;15.82;6.55;;;;;;;12.36;100.00;99330.94;5130886;27;20076;-92
2024/03/17 09:53:45;;;;;;;14.13;6.72;;;;;;;12.45;100.00;99336.91;5128944;28;20048;-93
2024/03/17 09:56:13;;;;;;;12.50;6.70;;;;;;;12.66;100.00;99406.63;5128308;28;20039;-94
2024/03/17 09:58:39;;;;;;;14.80;7.57;;;;;;;12.83;100.00;99355.50;5128756;28;20097;-95
2024/03/17 10:01:05;;;;;;;16.10;7.90;;;;;;;13.17;100.00;99373.28;5127936;28;20035;-93
2024/03/17 10:03:45;;;;;;;19.67;8.63;;;;;;;13.60;100.00;99388.06;5121178;28;20185;-93
2024/03/17 10:06:12;;;;;;;12.93;7.20;;;;;;;13.66;100.00;99361.19;5111634;28;20120;-94
2024/03/17 10:08:43;;;;;;;15.75;7.57;;;;;;;13.08;100.00;99287.16;5120515;28;20185;-91
2024/03/17 10:11:11;;;;;;;15.68;8.48;;;;;;;13.75;100.00;99372.47;5123826;28;20071;-92
2024/03/17 10:13:37;;;;;;;15.75;7.72;;;;;;;14.09;100.00;99366.06;5121984;28;20039;-92
2024/03/17 10:16:04;;;;;;;15.73;7.55;;;;;;;13.83;100.00;99382.06;5113129;28;20074;-91
2024/03/17 10:18:31;;;;;;;14.45;7.07;;;;;;;14.08;100.00;99380.38;5117588;28;20047;-92
2024/03/17 10:20:58;;;;;;;15.90;9.18;;;;;;;13.85;100.00;99303.56;5122985;28;20063;-91
2024/03/17 10:23:24;;;;;;;13.82;7.32;;;;;;;14.55;100.00;99383.34;5123852;28;20046;-93
2024/03/17 10:25:52;;;;;;;19.27;10.38;;;;;;;14.78;100.00;99381.69;5123587;28;20043;-93
2024/03/17 10:28:20;;;;;;;17.00;8.38;;;;;;;14.63;100.00;99380.41;5122988;28;20047;-93
2024/03/17 10:30:58;;;;;;;15.38;8.48;;;;;;;14.90;100.00;99373.22;5122999;28;20111;-92
2024/03/17 10:33:25;;;;;;;14.05;8.07;;;;;;;14.66;100.00;99316.06;5123183;28;20122;-91
2024/03/17 10:36:00;;;;;;;16.90;7.80;;;;;;;15.25;100.00;99376.44;5122926;28;20044;-93
2024/03/17 10:38:27;;;;;;;16.20;9.27;;;;;;;15.22;100.00;99368.50;5126368;28;20479;-91
2024/03/17 10:40:55;;;;;;;16.73;8.95;;;;;;;15.06;100.00;99370.88;5121371;28;20078;-91
2024/03/17 10:43:24;;;;;;;22.63;8.82;;;;;;;14.95;100.00;99332.91;5121396;28;20036;-91
2024/03/17 10:45:51;;;;;;;15.80;7.75;;;;;;;14.51;100.00;99284.44;5115244;28;20050;-92
2024/03/17 10:48:22;;;;;;;13.32;7.95;;;;;;;15.11;100.00;99371.56;5113564;28;20035;-92
2024/03/17 10:50:50;;;;;;;16.70;9.20;;;;;;;14.81;100.00;99369.97;5112512;28;20040;-91
2024/03/17 10:53:26;;;;;;;16.25;8.40;;;;;;;14.78;100.00;99345.06;5115195;28;20047;-91
2024/03/17 10:56:04;;;;;;;19.83;9.38;;;;;;;14.72;100.00;99379.22;5117623;28;20092;-90
2024/03/17 10:58:35;;;;;;;14.38;8.00;;;;;;;14.52;100.00;99318.31;5122929;28;20043;-91
2024/03/17 11:01:02;;;;;;;19.88;8.55;;;;;;;14.52;100.00;99308.47;5118558;28;20071;-89
2024/03/17 11:03:31;;;;;;;15.30;8.30;;;;;;;14.96;100.00;99343.56;5117190;28;20040;-89
2024/03/17 11:05:58;;;;;;;13.45;7.72;;;;;;;15.06;100.00;99364.66;5115695;28;20058;-89
2024/03/17 11:08:25;;;;;;;17.02;8.80;;;;;;;15.15;100.00;99348.25;5115758;28;20044;-92
2024/03/17 11:10:54;;;;;;;14.90;7.93;;;;;;;15.19;100.00;99345.38;5115398;28;20089;-91
2024/03/17 11:13:26;;;;;;;18.00;9.88;;;;;;;15.11;100.00;99325.16;5115442;28;20066;-92
2024/03/17 11:15:53;;;;;;;19.92;12.77;;;;;;;15.40;100.00;99346.41;5113611;28;20457;-90
2024/03/17 11:18:36;;;;;;;22.58;11.95;;;;;;;14.82;100.00;99345.84;5112005;28;20044;-92
2024/03/17 11:21:10;;;;;;;20.00;11.10;;;;;;;15.04;100.00;99350.44;5115332;28;20118;-90
2024/03/17 11:23:37;;;;;;;21.85;11.68;;;;;;;15.31;100.00;99349.44;5115249;28;20047;-90
2024/03/17 11:26:04;;;;;;;19.08;11.70;;;;;;;15.42;100.00;99351.72;5114431;28;20046;-91
2024/03/17 11:28:52;;;;;;;20.45;11.32;;;;;;;15.53;100.00;99332.56;5115569;28;20044;-90